ZNZ weather

Abeid Amani Karume International Airport
Zanzibar, Kaskazini Unguja Region, Tanzania

Public forecast

Using degrees Celsius for public forecast. Weather courtesy of forecast.io.

Current aviation weather report (METAR) for Abeid Amani Karume International Airport

Retrieved 2020/04/08 04:00 UTC (59 minutes ago):

HTZA 080400Z 00000KT 9999 FEW012 26/25 Q1013 NOSIG

Aviation forecast (TAF) for Abeid Amani Karume International Airport

Retrieved 2020-04-08 00:27 UTC (5 hours ago):

TAF TAF HTZA 072300Z 0800/0824 00000KT 9999 FEW012 BECMG 0804/0806 21010KT BKN014 FW016CB PROB30 TEMPO 0806/0810 5000 TSRA BECMG 0810/0812 10010KT SCT020 FEW022CB